Time;durP1;ratioP1;P1;durP2;ratioP2;P2;SDS_P1;SDS_P2;PMS_P1;PMS_P2;Temp;Humidity;BMP_temperature;BMP_pressure;BME280_temperature;BME280_humidity;BME280_pressure;Samples;Min_cycle;Max_cycle;Signal;HPM_P1;HPM_P2
2022/09/19 00:06:11;;;;;;;4.47;3.12;;;17.50;75.60;;;;;;10832036;32;20082;-74
2022/09/19 00:12:14;;;;;;;4.95;3.20;;;17.50;75.50;;;;;;10831800;32;20051;-74
2022/09/19 00:18:16;;;;;;;5.28;3.10;;;17.50;75.60;;;;;;10831525;32;20058;-73
2022/09/19 00:24:46;;;;;;;4.32;3.75;;;17.50;75.80;;;;;;10831026;32;20400;-73
2022/09/19 00:30:48;;;;;;;2.83;2.47;;;17.50;75.70;;;;;;10831247;32;20020;-73
2022/09/19 00:36:50;;;;;;;3.95;3.45;;;17.30;75.60;;;;;;10830733;32;20427;-74
2022/09/19 00:42:52;;;;;;;6.60;3.25;;;17.20;75.80;;;;;;10830772;32;20023;-73
2022/09/19 00:49:04;;;;;;;5.47;3.55;;;17.30;76.00;;;;;;10830458;32;20052;-73
2022/09/19 00:55:10;;;;;;;4.07;2.83;;;17.30;76.00;;;;;;10829615;32;20431;-73
2022/09/19 01:01:14;;;;;;;2.95;2.12;;;17.20;75.80;;;;;;10830362;32;20054;-73
2022/09/19 01:07:26;;;;;;;3.65;2.97;;;17.20;75.90;;;;;;10829275;32;20058;-73
2022/09/19 01:13:52;;;;;;;4.03;2.85;;;17.20;76.00;;;;;;10829775;32;20024;-73
2022/09/19 01:20:12;;;;;;;5.22;3.22;;;17.10;76.30;;;;;;10828494;32;20062;-73
2022/09/19 01:26:32;;;;;;;5.43;3.45;;;17.10;76.20;;;;;;10829977;33;20048;-73
2022/09/19 01:32:44;;;;;;;4.97;3.53;;;17.00;76.40;;;;;;10829328;32;20062;-73
2022/09/19 01:38:49;;;;;;;3.08;2.47;;;17.00;76.30;;;;;;10836931;32;20407;-73
2022/09/19 01:44:53;;;;;;;3.25;2.37;;;16.90;76.40;;;;;;10836991;32;20020;-75
2022/09/19 01:51:17;;;;;;;6.18;4.03;;;16.80;76.40;;;;;;10836792;32;20039;-73
2022/09/19 01:57:57;;;;;;;5.78;3.50;;;16.80;76.30;;;;;;10836553;32;20324;-73
2022/09/19 02:04:17;;;;;;;3.00;2.70;;;16.80;76.40;;;;;;10832558;32;20012;-73
2022/09/19 02:10:54;;;;;;;3.58;2.80;;;16.80;76.70;;;;;;10836156;32;20050;-73
2022/09/19 02:17:04;;;;;;;2.72;2.30;;;16.80;76.60;;;;;;10795695;33;20047;-73
2022/09/19 02:23:11;;;;;;;;;;;16.70;76.70;;;;;;10790894;33;20040;-73
2022/09/19 02:29:22;;;;;;;4.78;2.75;;;16.60;76.80;;;;;;10790338;33;19942;-73
2022/09/19 02:35:50;;;;;;;6.37;3.42;;;16.50;77.00;;;;;;10794161;33;20060;-73
2022/09/19 02:42:08;;;;;;;4.43;3.42;;;16.30;77.10;;;;;;10795126;33;20024;-75
2022/09/19 02:48:16;;;;;;;4.03;3.53;;;16.30;77.20;;;;;;10790366;33;20027;-73
2022/09/19 02:54:26;;;;;;;3.12;2.33;;;16.20;77.10;;;;;;10829944;32;20031;-73
2022/09/19 03:00:32;;;;;;;5.40;3.95;;;16.20;77.30;;;;;;10834339;32;20360;-73
2022/09/19 03:06:39;;;;;;;3.40;3.00;;;16.10;77.20;;;;;;10834229;32;20440;-73
2022/09/19 03:12:52;;;;;;;4.20;2.75;;;16.10;77.10;;;;;;10833923;32;20028;-73
2022/09/19 03:18:56;;;;;;;2.83;2.30;;;15.90;77.20;;;;;;10833811;32;20042;-73
2022/09/19 03:25:02;;;;;;;4.78;3.05;;;15.80;77.30;;;;;;10833590;32;20054;-73
2022/09/19 03:31:06;;;;;;;4.03;3.05;;;15.80;77.50;;;;;;10832551;32;20485;-73
2022/09/19 03:37:09;;;;;;;3.80;2.85;;;15.90;77.50;;;;;;10828282;32;20036;-73
2022/09/19 03:43:11;;;;;;;5.40;3.97;;;15.90;77.40;;;;;;10828956;32;20396;-73
2022/09/19 03:49:14;;;;;;;4.97;2.80;;;16.00;77.60;;;;;;10828613;33;20388;-73
2022/09/19 03:55:17;;;;;;;5.85;3.80;;;16.10;77.30;;;;;;10831997;32;20024;-73
2022/09/19 04:01:19;;;;;;;4.82;3.03;;;16.20;77.30;;;;;;10830890;32;20028;-73
2022/09/19 04:07:22;;;;;;;5.65;3.40;;;16.00;77.30;;;;;;10831973;32;20058;-73
2022/09/19 04:13:25;;;;;;;7.87;3.05;;;15.80;77.50;;;;;;10831647;32;20063;-73
2022/09/19 04:19:29;;;;;;;4.20;3.25;;;15.80;77.70;;;;;;10827647;32;20380;-73
2022/09/19 04:25:35;;;;;;;5.22;4.05;;;15.90;77.90;;;;;;10828071;32;20028;-73
2022/09/19 04:31:40;;;;;;;5.87;4.62;;;15.90;77.80;;;;;;10831187;32;20042;-73
2022/09/19 04:37:42;;;;;;;3.33;2.92;;;15.80;77.80;;;;;;10826765;33;20036;-73
2022/09/19 04:44:09;;;;;;;4.80;3.08;;;15.70;77.90;;;;;;10829035;32;20056;-73
2022/09/19 04:50:11;;;;;;;3.87;2.78;;;15.60;78.00;;;;;;10830742;32;20027;-73
2022/09/19 04:56:14;;;;;;;3.53;3.05;;;15.60;78.00;;;;;;10827714;32;20046;-73
2022/09/19 05:02:18;;;;;;;4.12;3.00;;;15.50;78.00;;;;;;10830364;32;20023;-73
2022/09/19 05:08:30;;;;;;;4.70;3.40;;;15.50;78.20;;;;;;10830068;32;20016;-73
2022/09/19 05:14:33;;;;;;;3.33;2.65;;;15.60;78.00;;;;;;10829828;32;20051;-73
2022/09/19 05:20:36;;;;;;;5.00;3.65;;;15.60;78.10;;;;;;10829893;32;20043;-73
2022/09/19 05:26:40;;;;;;;3.60;2.50;;;15.70;78.30;;;;;;10828977;33;20031;-73
2022/09/19 05:32:44;;;;;;;4.37;2.78;;;15.60;78.40;;;;;;10826047;33;20434;-74
2022/09/19 05:39:03;;;;;;;4.55;3.25;;;15.70;78.70;;;;;;10829225;33;20389;-74
2022/09/19 05:45:06;;;;;;;3.12;1.98;;;15.70;78.40;;;;;;10829378;33;20077;-73
2022/09/19 05:51:11;;;;;;;3.67;2.50;;;15.70;78.20;;;;;;10828502;33;20059;-73
2022/09/19 05:57:13;;;;;;;5.55;2.65;;;15.70;78.30;;;;;;10829517;33;20020;-73
2022/09/19 06:03:20;;;;;;;3.00;2.65;;;15.70;78.30;;;;;;10828411;33;20364;-74
2022/09/19 06:15:52;;;;;;;3.87;3.03;;;15.70;78.20;;;;;;10829555;27;20040;-74
2022/09/19 06:21:57;;;;;;;5.35;3.50;;;15.70;78.20;;;;;;10813766;32;20028;-73
2022/09/19 06:28:10;;;;;;;4.43;3.12;;;15.70;78.10;;;;;;10831229;33;20043;-74
2022/09/19 06:34:14;;;;;;;2.35;2.15;;;15.70;77.90;;;;;;10834991;32;20182;-73
2022/09/19 06:40:20;;;;;;;2.12;1.65;;;15.80;77.70;;;;;;10835193;32;20016;-73
2022/09/19 06:46:22;;;;;;;2.65;2.17;;;16.00;77.60;;;;;;10834651;32;20439;-74
2022/09/19 06:52:28;;;;;;;3.47;2.33;;;16.10;77.50;;;;;;10833719;32;20028;-73
2022/09/19 06:58:30;;;;;;;2.12;1.90;;;16.20;77.40;;;;;;10834335;32;20058;-73
2022/09/19 07:04:34;;;;;;;2.03;1.70;;;16.30;77.30;;;;;;10833273;32;20016;-73
2022/09/19 07:10:37;;;;;;;3.62;2.20;;;16.40;76.90;;;;;;10832259;32;20331;-74
2022/09/19 07:16:39;;;;;;;5.22;2.95;;;16.50;76.40;;;;;;10830382;32;20035;-73
2022/09/19 07:22:41;;;;;;;4.32;2.67;;;16.50;75.90;;;;;;10833638;32;20324;-73
2022/09/19 07:28:43;;;;;;;5.43;3.17;;;16.70;75.80;;;;;;10829667;32;20058;-73
2022/09/19 07:34:46;;;;;;;6.87;3.95;;;16.80;75.70;;;;;;10833184;32;20086;-74
2022/09/19 07:40:50;;;;;;;4.93;2.50;;;16.90;75.40;;;;;;10831683;32;20058;-73
2022/09/19 07:53:18;;;;;;;5.30;1.77;;;17.20;75.30;;;;;;10832910;32;20032;-73
2022/09/19 07:59:21;;;;;;;8.27;3.90;;;17.30;75.10;;;;;;10832008;32;20020;-73
2022/09/19 08:05:26;;;;;;;4.22;2.30;;;17.40;74.80;;;;;;10831133;32;20028;-74
2022/09/19 08:11:28;;;;;;;2.78;2.03;;;17.50;74.40;;;;;;10831705;32;20352;-76
2022/09/19 08:17:31;;;;;;;3.92;2.47;;;17.60;74.00;;;;;;10829530;32;20055;-74
2022/09/19 08:23:33;;;;;;;3.60;2.05;;;17.70;73.50;;;;;;10394039;32;12909852;-73
2022/09/19 08:29:38;;;;;;;3.60;1.95;;;17.70;73.30;;;;;;10752893;33;20033;-74
2022/09/19 08:35:41;;;;;;;3.12;2.55;;;17.80;73.40;;;;;;10749807;33;20325;-73
2022/09/19 08:42:03;;;;;;;2.40;1.45;;;18.00;73.30;;;;;;10753490;33;20373;-73
2022/09/19 08:48:11;;;;;;;4.47;2.83;;;18.00;73.00;;;;;;10756612;33;20082;-73
2022/09/19 08:54:43;;;;;;;1.87;1.50;;;18.20;72.30;;;;;;10793597;32;20051;-73
2022/09/19 09:00:46;;;;;;;4.00;2.45;;;18.20;72.10;;;;;;10790275;33;20082;-73
2022/09/19 09:07:23;;;;;;;1.92;1.48;;;18.30;72.00;;;;;;10793356;32;20028;-74
2022/09/19 09:13:45;;;;;;;3.12;2.42;;;18.50;71.90;;;;;;10789052;33;20071;-74
2022/09/19 09:20:15;;;;;;;2.15;1.60;;;18.60;71.60;;;;;;10793219;33;20025;-74
2022/09/19 09:26:27;;;;;;;1.95;1.62;;;18.70;71.60;;;;;;10793032;33;20435;-74
2022/09/19 09:32:36;;;;;;;2.58;1.95;;;18.80;71.00;;;;;;10789864;33;20036;-73
2022/09/19 09:39:01;;;;;;;1.20;1.10;;;19.00;70.90;;;;;;10792711;33;20066;-74
2022/09/19 09:45:36;;;;;;;6.18;2.53;;;19.20;70.20;;;;;;10792532;33;20020;-73
2022/09/19 09:51:47;;;;;;;3.35;2.22;;;19.30;69.90;;;;;;10791629;33;20112;-74
2022/09/19 09:57:59;;;;;;;2.78;2.08;;;19.30;69.50;;;;;;10793617;33;20024;-74
2022/09/19 10:04:39;;;;;;;1.87;1.33;;;19.50;69.10;;;;;;10799635;33;20032;-75
2022/09/19 10:10:43;;;;;;;2.53;1.83;;;19.60;68.80;;;;;;10687163;33;20334;-73
2022/09/19 10:16:48;;;;;;;2.40;1.90;;;19.80;68.30;;;;;;10681644;33;20477;-74
2022/09/19 10:22:53;;;;;;;1.45;1.15;;;20.00;68.20;;;;;;10686823;33;20451;-74
2022/09/19 10:29:02;;;;;;;1.60;1.35;;;20.10;67.10;;;;;;10686595;33;20056;-74
2022/09/19 10:35:43;;;;;;;5.12;1.40;;;20.30;66.40;;;;;;10686318;33;20377;-73
2022/09/19 10:41:46;;;;;;;7.43;1.53;;;20.50;65.50;;;;;;10686249;33;20056;-75
2022/09/19 10:48:11;;;;;;;3.03;1.52;;;20.80;65.00;;;;;;10807427;32;20016;-74
2022/09/19 10:54:40;;;;;;;1.62;1.05;;;21.00;64.60;;;;;;10833826;32;20047;-73
2022/09/19 11:00:58;;;;;;;2.53;1.07;;;21.30;64.30;;;;;;10831076;32;20388;-74
2022/09/19 11:13:43;;;;;;;1.00;0.90;;;22.00;62.90;;;;;;10827178;32;20020;-74
2022/09/19 11:20:29;;;;;;;1.65;1.20;;;22.30;61.90;;;;;;10832485;32;20401;-75
2022/09/19 11:27:09;;;;;;;2.42;1.23;;;22.50;59.70;;;;;;10818516;32;20336;-74
2022/09/19 11:34:11;;;;;;;0.80;0.57;;;22.60;58.40;;;;;;10796552;33;20411;-73
2022/09/19 11:40:31;;;;;;;0.80;0.73;;;22.80;58.20;;;;;;10791304;33;20209;-74
2022/09/19 11:46:41;;;;;;;1.80;1.10;;;23.00;57.80;;;;;;10809452;32;20025;-73
2022/09/19 11:52:52;;;;;;;0.75;0.75;;;23.10;57.40;;;;;;10795879;33;20043;-73
2022/09/19 11:59:28;;;;;;;1.27;0.77;;;23.30;56.80;;;;;;10795227;33;20016;-72
2022/09/19 12:06:16;;;;;;;1.92;0.70;;;23.30;56.40;;;;;;10794652;32;20028;-73
2022/09/19 12:12:26;;;;;;;1.40;1.00;;;23.30;56.40;;;;;;10791031;33;20020;-73
2022/09/19 12:18:55;;;;;;;1.15;0.77;;;23.30;56.10;;;;;;10793501;33;20334;-73
2022/09/19 12:25:08;;;;;;;4.50;0.93;;;23.30;55.00;;;;;;10793775;33;20025;-74
2022/09/19 12:31:14;;;;;;;2.22;0.93;;;23.20;55.00;;;;;;10794537;32;20116;-74
2022/09/19 12:37:30;;;;;;;1.80;0.90;;;23.20;54.30;;;;;;10794411;32;20079;-73
2022/09/19 12:44:07;;;;;;;1.42;0.75;;;23.10;54.20;;;;;;10794077;33;20142;-73
2022/09/19 12:50:32;;;;;;;0.62;0.57;;;23.00;53.40;;;;;;10754342;33;20051;-73
2022/09/19 12:56:42;;;;;;;1.45;1.17;;;23.00;52.50;;;;;;10750410;33;20063;-72
2022/09/19 13:02:51;;;;;;;0.77;0.50;;;22.90;52.00;;;;;;10750147;33;20472;-72
2022/09/19 13:09:06;;;;;;;0.65;0.65;;;22.90;52.00;;;;;;10753943;33;20032;-72
2022/09/19 13:16:13;;;;;;;0.50;0.50;;;22.90;51.00;;;;;;10748774;33;20054;-72
2022/09/19 13:28:21;;;;;;;0.85;0.73;;;22.90;51.30;;;;;;10754285;33;20055;-73
2022/09/19 13:34:39;;;;;;;0.77;0.70;;;23.00;51.00;;;;;;10752600;33;20233;-73
2022/09/19 13:40:54;;;;;;;2.00;1.02;;;23.00;51.40;;;;;;10764415;33;20063;-72
2022/09/19 13:47:07;;;;;;;1.62;0.70;;;23.10;51.70;;;;;;10762292;33;20090;-73
2022/09/19 13:53:30;;;;;;;4.05;0.90;;;23.10;52.00;;;;;;10802906;33;20078;-73
2022/09/19 13:59:39;;;;;;;3.25;1.17;;;23.20;51.50;;;;;;10841325;32;20027;-73
2022/09/19 14:05:42;;;;;;;2.20;0.88;;;23.20;51.30;;;;;;10826702;32;20035;-73
2022/09/19 14:11:48;;;;;;;1.62;0.75;;;23.30;51.60;;;;;;10826565;27;20055;-73
2022/09/19 14:18:39;;;;;;;4.53;1.55;;;23.30;51.70;;;;;;10839487;32;20054;-73
2022/09/19 14:24:45;;;;;;;3.90;1.25;;;23.30;51.60;;;;;;10760148;33;20025;-73
2022/09/19 14:31:05;;;;;;;2.08;1.00;;;23.30;51.40;;;;;;10763484;33;20055;-73
2022/09/19 14:37:28;;;;;;;1.58;1.15;;;23.30;52.00;;;;;;10759053;33;20032;-72
2022/09/19 14:44:12;;;;;;;1.12;0.60;;;23.20;51.10;;;;;;10759438;33;20024;-73
2022/09/19 14:51:07;;;;;;;1.50;0.93;;;23.30;49.60;;;;;;10757397;33;20416;-73
2022/09/19 14:57:22;;;;;;;2.08;0.62;;;23.30;48.90;;;;;;10722543;33;20291;-73
2022/09/19 15:03:24;;;;;;;1.45;0.82;;;23.40;48.40;;;;;;10754455;33;20409;-73
2022/09/19 15:09:35;;;;;;;0.52;0.50;;;23.60;48.40;;;;;;10754024;33;20048;-73
2022/09/19 15:15:40;;;;;;;1.17;0.85;;;23.90;48.10;;;;;;10756344;33;20059;-73
2022/09/19 15:21:59;;;;;;;1.40;1.00;;;24.10;47.30;;;;;;10756274;33;20330;-73
2022/09/19 15:28:21;;;;;;;1.02;0.68;;;24.20;46.50;;;;;;10755629;33;20397;-73
2022/09/19 15:34:27;;;;;;;1.10;0.45;;;24.80;45.80;;;;;;10793749;33;20028;-72
2022/09/19 15:40:32;;;;;;;1.33;0.70;;;25.50;45.00;;;;;;10794040;33;20047;-73
2022/09/19 15:46:41;;;;;;;2.85;0.85;;;26.20;43.80;;;;;;10805019;32;20047;-73
2022/09/19 15:52:45;;;;;;;1.00;0.60;;;26.00;43.70;;;;;;10820216;32;20055;-72
2022/09/19 15:59:01;;;;;;;4.55;1.48;;;25.00;44.70;;;;;;10832625;32;20067;-72
2022/09/19 16:05:25;;;;;;;1.52;0.98;;;24.50;45.60;;;;;;10832249;32;20024;-72
2022/09/19 16:11:36;;;;;;;1.25;0.50;;;24.50;45.40;;;;;;10813339;32;20089;-72
2022/09/19 16:17:53;;;;;;;1.83;0.85;;;25.00;45.30;;;;;;10832344;32;20027;-72
2022/09/19 16:23:56;;;;;;;0.93;0.57;;;25.00;45.50;;;;;;10829032;32;20343;-73
2022/09/19 16:30:01;;;;;;;2.92;1.17;;;24.60;46.10;;;;;;10831021;32;20408;-72
2022/09/19 16:36:12;;;;;;;3.03;1.05;;;24.00;46.90;;;;;;10829071;32;20040;-73
2022/09/19 16:42:20;;;;;;;3.72;0.60;;;23.60;47.40;;;;;;10852300;32;20058;-73
2022/09/19 16:48:24;;;;;;;0.90;0.70;;;23.30;48.10;;;;;;10830652;32;20054;-73
2022/09/19 16:54:27;;;;;;;0.30;0.30;;;22.90;48.80;;;;;;10830464;32;20036;-73
2022/09/19 17:00:30;;;;;;;0.80;0.70;;;22.70;49.20;;;;;;10830122;32;20380;-73
2022/09/19 17:06:37;;;;;;;0.50;0.50;;;22.50;49.80;;;;;;10829914;32;20408;-73
2022/09/19 17:13:02;;;;;;;0.50;0.50;;;22.30;50.50;;;;;;10829983;32;20027;-73
2022/09/19 17:19:04;;;;;;;2.83;0.70;;;22.00;51.80;;;;;;10829969;32;20036;-74
2022/09/19 17:25:46;;;;;;;1.70;0.95;;;21.80;52.80;;;;;;10841355;32;20027;-74
2022/09/19 17:32:21;;;;;;;0.50;0.50;;;21.70;54.00;;;;;;10829880;33;20047;-74
2022/09/19 17:38:40;;;;;;;1.05;0.62;;;21.40;55.20;;;;;;10829612;32;20031;-73
2022/09/19 17:44:44;;;;;;;0.75;0.70;;;21.20;56.60;;;;;;10824682;33;20028;-72
2022/09/19 17:50:46;;;;;;;1.10;0.77;;;21.10;57.60;;;;;;10824441;33;20032;-72
2022/09/19 17:56:49;;;;;;;0.55;0.45;;;21.00;58.60;;;;;;10828488;33;20024;-73
2022/09/19 18:09:16;;;;;;;1.37;0.73;;;20.70;60.70;;;;;;10829983;33;20016;-73
2022/09/19 18:15:18;;;;;;;0.73;0.73;;;20.60;61.30;;;;;;10828175;32;20055;-73
2022/09/19 18:21:20;;;;;;;1.10;1.00;;;20.50;61.90;;;;;;10836162;32;20024;-73
2022/09/19 18:27:28;;;;;;;0.80;0.70;;;20.40;62.80;;;;;;10834981;32;20020;-73
2022/09/19 18:33:33;;;;;;;0.67;0.60;;;20.30;62.90;;;;;;10831509;33;20032;-73
2022/09/19 18:39:35;;;;;;;1.10;1.00;;;20.30;62.70;;;;;;10831197;32;20028;-73
2022/09/19 18:45:39;;;;;;;0.62;0.62;;;20.30;62.70;;;;;;10835056;32;20059;-73
2022/09/19 18:51:41;;;;;;;1.10;1.00;;;20.20;63.60;;;;;;10829966;32;20012;-73
2022/09/19 18:57:43;;;;;;;2.30;1.23;;;20.20;63.70;;;;;;10834230;32;20046;-73
2022/09/19 19:03:51;;;;;;;0.80;0.62;;;20.10;64.10;;;;;;10827015;32;20024;-73
2022/09/19 19:09:54;;;;;;;1.33;0.77;;;20.00;65.00;;;;;;10834210;32;20343;-73
2022/09/19 19:16:11;;;;;;;0.75;0.75;;;19.90;65.90;;;;;;10834406;32;20344;-73
2022/09/19 19:22:14;;;;;;;3.08;1.27;;;19.80;66.30;;;;;;10825177;32;20028;-73
2022/09/19 19:28:16;;;;;;;1.15;0.80;;;19.70;67.30;;;;;;10809358;32;20058;-73
2022/09/19 19:34:18;;;;;;;3.33;1.48;;;19.70;67.10;;;;;;10818957;32;20459;-73
2022/09/19 19:40:20;;;;;;;1.33;1.20;;;19.70;67.40;;;;;;10832229;32;20548;-73
2022/09/19 19:46:27;;;;;;;1.85;1.30;;;19.70;67.20;;;;;;10810241;33;20059;-73
2022/09/19 19:52:29;;;;;;;1.10;1.00;;;19.70;67.00;;;;;;10818669;32;20089;-73
2022/09/19 19:58:31;;;;;;;4.75;1.20;;;19.70;67.60;;;;;;10811374;33;20086;-73
2022/09/19 20:04:34;;;;;;;1.33;1.12;;;19.60;67.90;;;;;;10810534;33;20420;-73
2022/09/19 20:10:37;;;;;;;2.80;1.73;;;19.60;68.10;;;;;;10823559;32;20317;-73
2022/09/19 20:16:43;;;;;;;2.17;1.33;;;19.60;68.40;;;;;;10826978;32;20036;-73
2022/09/19 20:22:46;;;;;;;2.58;1.42;;;19.50;68.20;;;;;;10831741;32;20290;-73
2022/09/19 20:28:50;;;;;;;1.58;1.10;;;19.50;68.10;;;;;;10830997;32;20063;-73
2022/09/19 20:35:00;;;;;;;3.40;1.50;;;19.50;68.10;;;;;;10830470;32;20027;-73
2022/09/19 20:41:05;;;;;;;1.80;1.50;;;19.40;68.10;;;;;;10830794;32;20046;-73
2022/09/19 20:47:08;;;;;;;3.33;1.80;;;19.40;68.10;;;;;;10829554;32;20051;-73
2022/09/19 20:53:11;;;;;;;2.75;1.52;;;19.40;68.10;;;;;;10827356;32;20028;-73
2022/09/19 20:59:15;;;;;;;2.80;1.65;;;19.40;68.50;;;;;;10830537;32;20032;-73
2022/09/19 21:05:18;;;;;;;2.53;1.50;;;19.30;68.90;;;;;;10830567;32;20046;-73
2022/09/19 21:11:25;;;;;;;2.37;1.58;;;19.30;69.50;;;;;;10827231;32;20351;-73
2022/09/19 21:17:27;;;;;;;2.17;1.77;;;19.20;70.10;;;;;;10830291;32;20032;-73
2022/09/19 21:23:30;;;;;;;3.00;1.87;;;19.10;70.50;;;;;;10830055;32;20024;-73
2022/09/19 21:29:32;;;;;;;2.78;1.87;;;18.90;70.80;;;;;;10829906;32;20032;-72
2022/09/19 21:35:42;;;;;;;4.03;1.35;;;19.00;70.90;;;;;;10825758;33;20024;-72
2022/09/19 21:41:56;;;;;;;2.83;1.67;;;19.00;71.00;;;;;;10826279;33;20063;-73
2022/09/19 21:47:58;;;;;;;3.83;2.05;;;19.00;71.00;;;;;;10836785;32;20082;-73
2022/09/19 21:54:01;;;;;;;3.83;1.80;;;19.00;70.90;;;;;;10836486;32;20055;-73
2022/09/19 22:00:05;;;;;;;1.10;1.00;;;19.00;70.70;;;;;;10836876;32;20028;-72
2022/09/19 22:06:13;;;;;;;3.55;1.20;;;19.00;70.60;;;;;;10832475;32;20042;-72
2022/09/19 22:12:15;;;;;;;2.28;1.00;;;19.00;70.50;;;;;;10840788;27;20062;-73
2022/09/19 22:18:17;;;;;;;2.50;1.30;;;18.90;70.30;;;;;;10836333;32;20064;-72
2022/09/19 22:24:19;;;;;;;0.70;0.68;;;18.90;70.60;;;;;;10834585;32;20046;-73
2022/09/19 22:30:22;;;;;;;1.67;0.90;;;18.80;70.40;;;;;;10835766;32;20032;-73
2022/09/19 22:36:28;;;;;;;1.30;1.02;;;18.80;70.10;;;;;;10831502;32;20035;-73
2022/09/19 22:43:00;;;;;;;3.33;1.25;;;18.80;70.50;;;;;;10832319;32;20040;-73
2022/09/19 22:49:02;;;;;;;1.35;1.00;;;18.80;70.90;;;;;;10827332;33;20024;-73
2022/09/19 22:55:05;;;;;;;1.17;1.08;;;18.80;71.00;;;;;;10831563;32;20063;-73
2022/09/19 23:01:15;;;;;;;1.95;1.52;;;18.70;71.00;;;;;;10831000;32;20059;-73
2022/09/19 23:07:17;;;;;;;0.82;0.82;;;18.60;71.30;;;;;;10830568;32;20059;-72
2022/09/19 23:19:41;;;;;;;1.37;1.15;;;18.50;72.00;;;;;;10834038;32;20028;-73
2022/09/19 23:25:45;;;;;;;1.42;1.10;;;18.50;72.20;;;;;;10833862;32;20028;-73
2022/09/19 23:31:48;;;;;;;0.82;0.82;;;18.50;72.50;;;;;;10829568;32;20032;-73
2022/09/19 23:37:50;;;;;;;1.05;0.90;;;18.40;73.10;;;;;;10833396;32;20019;-72
2022/09/19 23:43:53;;;;;;;1.62;0.90;;;18.30;73.30;;;;;;10833211;32;20055;-73
2022/09/19 23:49:55;;;;;;;1.75;1.25;;;18.40;73.90;;;;;;10832992;32;20315;-72
2022/09/19 23:55:58;;;;;;;1.27;0.70;;;18.40;73.80;;;;;;10828734;32;20040;-73
